GMMN/CMN METAR and TAF weather

Enter ICAO airport designator
Station Type Date Time Source
GMMN METAR 2019/09/21 21:30 UTC NOAA

GMMN 212130Z 00000KT 9999 FEW016 SCT200 20/18 Q1017 NOSIG


Station Type Date Time Source
GMMN Decoded METAR 2019/09/21 21:30 UTC NOAA

Nouasseur, Morocco (GMMN) 33-22N 007-35W 206M
Sep 21, 2019 - 05:30 PM EDT / 2019.09.21 2130 UTC
Wind: Calm:0
Visibility: greater than 7 mile(s):0
Sky conditions: partly cloudy
Temperature: 68 F (20 C)
Dew Point: 64 F (18 C)
Relative Humidity: 88%
Pressure (altimeter): 30.03 in. Hg (1017 hPa)
ob: GMMN 212130Z 00000KT 9999 FEW016 SCT200 20/18 Q1017 NOSIG
cycle: 21

Station Type Date Time Source
GMMN TAF 2019/09/21 18:44 UTC NOAA

TAF GMMN 211700Z 2118/2224 34010KT CAVOK
BECMG 2121/2123 06006KT
TEMPO 2204/2208 4000 BR BKN006
BECMG 2211/2213 34015KT

Example: see airport list